createdAt,value
2023-05-01T00:00:47.012Z,10.80
2023-05-01T00:05:50.665Z,10.70
2023-05-01T00:10:53.959Z,14.10
2023-05-01T00:15:57.336Z,12.50
2023-05-01T00:21:00.472Z,13.30
2023-05-01T00:26:03.707Z,12.70
2023-05-01T00:31:06.715Z,13.40
2023-05-01T00:36:10.155Z,12.90
2023-05-01T00:41:13.303Z,14.00
2023-05-01T00:46:19.227Z,13.00
2023-05-01T00:51:22.596Z,13.00
2023-05-01T00:56:26.460Z,12.30
2023-05-01T01:06:58.375Z,12.10
2023-05-01T01:12:13.423Z,13.60
2023-05-01T01:18:06.461Z,15.50
2023-05-01T01:23:48.798Z,13.50
2023-05-01T01:29:15.229Z,13.30
2023-05-01T01:34:27.848Z,13.40
2023-05-01T01:40:11.487Z,13.10
2023-05-01T01:45:36.758Z,12.20
2023-05-01T01:50:42.485Z,12.90
2023-05-01T01:55:48.263Z,12.90
2023-05-01T02:00:51.501Z,13.20
2023-05-01T02:05:58.712Z,12.40
2023-05-01T02:11:03.038Z,13.00
2023-05-01T02:16:07.588Z,12.50
2023-05-01T02:21:12.526Z,12.80
2023-05-01T02:26:18.294Z,12.90
2023-05-01T02:31:23.329Z,13.60
2023-05-01T02:36:27.692Z,13.40
2023-05-01T02:41:32.476Z,14.70
2023-05-01T02:46:38.037Z,13.30
2023-05-01T02:51:41.508Z,13.30
2023-05-01T02:56:44.616Z,13.90
2023-05-01T03:01:48.116Z,14.20
2023-05-01T03:06:52.389Z,17.00
2023-05-01T03:11:55.618Z,16.60
2023-05-01T03:16:58.629Z,16.10
2023-05-01T03:22:01.569Z,16.00
2023-05-01T03:27:05.656Z,13.70
2023-05-01T03:32:08.627Z,11.40
2023-05-01T03:37:12.194Z,11.60
2023-05-01T03:42:15.164Z,13.60
2023-05-01T03:47:19.336Z,15.00
2023-05-01T03:52:22.351Z,14.30
2023-05-01T03:57:25.313Z,15.50
2023-05-01T04:02:28.417Z,14.30
2023-05-01T04:07:31.590Z,13.90
2023-05-01T04:12:34.562Z,13.80
2023-05-01T04:17:37.693Z,13.80
2023-05-01T04:22:40.682Z,13.60
2023-05-01T04:27:43.747Z,14.20
2023-05-01T04:32:46.719Z,13.10
2023-05-01T04:37:49.699Z,14.10
2023-05-01T04:42:52.720Z,12.70
2023-05-01T04:47:56.291Z,13.00
2023-05-01T04:52:59.692Z,10.90
2023-05-01T04:58:04.836Z,11.70
2023-05-01T05:03:08.162Z,11.40
2023-05-01T05:13:14.131Z,8.50
2023-05-01T05:18:17.176Z,9.20
2023-05-01T05:23:20.198Z,7.10
2023-05-01T05:28:23.998Z,6.50
2023-05-01T05:33:27.317Z,6.50
2023-05-01T05:38:30.301Z,5.90
2023-05-01T05:43:33.310Z,6.60
2023-05-01T05:48:36.286Z,6.70
2023-05-01T05:53:39.242Z,5.90
2023-05-01T05:58:42.262Z,4.80
2023-05-01T06:03:45.357Z,4.50
2023-05-01T06:08:48.396Z,4.80
2023-05-01T06:13:51.393Z,4.50
2023-05-01T06:18:54.436Z,4.70
2023-05-01T06:23:57.423Z,4.50
2023-05-01T06:29:00.417Z,4.70
2023-05-01T06:34:03.359Z,5.30
2023-05-01T06:39:06.768Z,4.90
2023-05-01T06:44:09.740Z,4.10
2023-05-01T06:49:12.676Z,4.60
2023-05-01T06:54:15.714Z,4.30
2023-05-01T06:59:18.821Z,5.10
2023-05-01T07:04:21.806Z,5.80
2023-05-01T07:09:24.846Z,5.40
2023-05-01T07:14:27.833Z,6.20
2023-05-01T07:19:30.883Z,4.60
2023-05-01T07:24:33.856Z,5.20
2023-05-01T07:29:38.938Z,3.70
2023-05-01T07:34:41.902Z,4.10
2023-05-01T07:39:45.371Z,4.00
2023-05-01T07:49:54.023Z,3.90
2023-05-01T07:54:57.029Z,4.50
2023-05-01T08:00:00.048Z,4.00
2023-05-01T08:05:04.186Z,4.30
2023-05-01T08:10:07.914Z,5.50
2023-05-01T08:15:10.947Z,4.80
2023-05-01T08:20:13.926Z,4.80
2023-05-01T08:25:17.032Z,4.10
2023-05-01T08:30:20.043Z,3.10
2023-05-01T08:35:23.041Z,3.30
2023-05-01T08:40:27.030Z,3.70
2023-05-01T08:45:36.022Z,3.70
2023-05-01T08:50:41.155Z,3.30
2023-05-01T08:55:48.719Z,3.30
2023-05-01T09:00:53.170Z,3.90
2023-05-01T09:05:56.630Z,3.30
2023-05-01T09:11:00.941Z,3.50
2023-05-01T09:16:06.745Z,3.20
2023-05-01T09:21:10.508Z,3.20
2023-05-01T09:26:13.457Z,2.90
2023-05-01T09:31:30.452Z,3.40
2023-05-01T09:36:34.676Z,3.10
2023-05-01T09:41:51.200Z,2.70
2023-05-01T09:46:54.524Z,3.00
2023-05-01T09:52:11.992Z,3.60
2023-05-01T09:57:14.984Z,2.60
2023-05-01T10:02:32.049Z,2.80
2023-05-01T10:07:35.102Z,3.30
2023-05-01T10:12:38.130Z,3.00
2023-05-01T10:17:43.499Z,3.20
2023-05-01T10:22:46.786Z,2.80
2023-05-01T10:27:51.334Z,2.90
2023-05-01T10:32:54.763Z,3.30
2023-05-01T10:43:30.536Z,2.90
2023-05-01T10:48:45.152Z,3.30
2023-05-01T10:54:11.556Z,3.30
2023-05-01T10:59:17.874Z,2.90
2023-05-01T11:04:24.782Z,2.70
2023-05-01T11:09:44.693Z,3.10
2023-05-01T11:14:54.246Z,3.00
2023-05-01T11:20:00.456Z,3.10
2023-05-01T11:25:17.432Z,3.10
2023-05-01T11:30:21.164Z,4.00
2023-05-01T11:35:27.423Z,2.60
2023-05-01T11:40:32.994Z,3.50
2023-05-01T11:45:37.568Z,3.50
2023-05-01T11:50:40.897Z,3.30
2023-05-01T11:55:44.631Z,3.70
2023-05-01T12:00:50.796Z,3.20
2023-05-01T12:05:54.094Z,3.20
2023-05-01T12:10:57.711Z,2.80
2023-05-01T12:16:01.014Z,2.70
2023-05-01T12:21:04.034Z,3.20
2023-05-01T12:26:23.788Z,3.50
2023-05-01T12:31:27.967Z,3.10
2023-05-01T12:36:33.707Z,3.10
2023-05-01T12:41:50.028Z,3.20
2023-05-01T12:47:06.699Z,2.70
2023-05-01T12:52:09.937Z,3.20
2023-05-01T12:57:15.590Z,3.30
2023-05-01T13:02:18.921Z,2.60
2023-05-01T13:07:22.065Z,3.00
2023-05-01T13:12:26.793Z,2.80
2023-05-01T13:17:33.636Z,2.90
2023-05-01T13:22:39.280Z,2.80
2023-05-01T13:27:47.455Z,3.20
2023-05-01T13:32:50.485Z,2.70
2023-05-01T13:37:54.492Z,2.90
2023-05-01T13:42:57.481Z,2.90
2023-05-01T13:48:03.094Z,3.20
2023-05-01T13:53:06.963Z,2.80
2023-05-01T13:58:09.984Z,2.70
2023-05-01T14:03:15.878Z,3.10
2023-05-01T14:08:28.365Z,2.70
2023-05-01T14:13:31.348Z,3.00
2023-05-01T14:18:35.321Z,3.00
2023-05-01T14:23:42.189Z,2.60
2023-05-01T14:28:48.171Z,2.90
2023-05-01T14:34:15.610Z,2.90
2023-05-01T14:39:18.823Z,2.60
2023-05-01T14:49:29.733Z,2.60
2023-05-01T14:54:46.040Z,2.60
2023-05-01T14:59:49.795Z,3.40
2023-05-01T15:04:52.777Z,3.20
2023-05-01T15:09:55.775Z,2.80
2023-05-01T15:14:59.124Z,2.70
2023-05-01T15:20:02.312Z,3.00
2023-05-01T15:25:05.728Z,3.30
2023-05-01T15:30:10.332Z,2.70
2023-05-01T15:35:13.613Z,2.80
2023-05-01T15:40:16.949Z,2.70
2023-05-01T15:45:20.622Z,2.80
2023-05-01T15:50:27.436Z,2.90
2023-05-01T15:55:30.428Z,2.70
2023-05-01T16:00:35.844Z,3.00
2023-05-01T16:05:39.162Z,3.30
2023-05-01T16:30:55.805Z,2.80
2023-05-01T16:35:59.900Z,3.00
2023-05-01T16:41:04.210Z,2.90
2023-05-01T16:51:11.968Z,2.70
2023-05-01T16:56:15.418Z,2.90
2023-05-01T17:01:18.449Z,2.90
2023-05-01T17:06:21.705Z,2.70
2023-05-01T17:21:32.413Z,3.40
2023-05-01T17:26:35.387Z,3.80
2023-05-01T17:31:38.483Z,3.70
2023-05-01T17:36:41.529Z,3.30
2023-05-01T17:41:44.564Z,3.50
2023-05-01T17:46:47.493Z,4.30
2023-05-01T17:51:50.451Z,5.70
2023-05-01T17:56:53.403Z,7.00
2023-05-01T18:01:57.133Z,6.40
2023-05-01T18:07:00.748Z,5.90
2023-05-01T18:12:03.961Z,7.40
2023-05-01T18:17:07.134Z,8.90
2023-05-01T18:22:10.614Z,8.20
2023-05-01T18:32:16.686Z,7.40
2023-05-01T18:37:19.649Z,6.30
2023-05-01T18:42:22.555Z,6.20
2023-05-01T18:47:27.669Z,6.20
2023-05-01T18:52:31.350Z,6.30
2023-05-01T18:57:35.551Z,9.90
2023-05-01T19:02:42.700Z,18.80
2023-05-01T19:07:45.860Z,17.70
2023-05-01T19:12:49.469Z,12.90
2023-05-01T19:17:52.473Z,10.40
2023-05-01T19:22:55.567Z,8.90
2023-05-01T19:27:58.510Z,8.30
2023-05-01T19:33:01.488Z,8.90
2023-05-01T19:38:04.505Z,8.10
2023-05-01T19:43:07.466Z,8.80
2023-05-01T19:48:10.760Z,7.50
2023-05-01T19:53:13.744Z,9.30
2023-05-01T19:58:16.689Z,7.20
2023-05-01T20:03:19.845Z,7.40
2023-05-01T20:08:22.826Z,7.80
2023-05-01T20:13:25.757Z,6.80
2023-05-01T20:18:28.806Z,7.80
2023-05-01T20:23:31.751Z,8.20
2023-05-01T20:28:36.080Z,7.50
2023-05-01T20:33:39.142Z,7.10
2023-05-01T20:38:47.224Z,7.40
2023-05-01T20:43:50.181Z,6.30
2023-05-01T20:48:53.533Z,6.20
2023-05-01T20:53:56.628Z,6.00
2023-05-01T20:59:04.934Z,6.10
2023-05-01T21:04:08.202Z,6.30
2023-05-01T21:09:15.009Z,5.80
2023-05-01T21:14:17.994Z,5.80
2023-05-01T21:19:21.000Z,6.00
2023-05-01T21:24:25.790Z,5.40
2023-05-01T21:29:28.896Z,6.10
2023-05-01T21:34:31.939Z,5.70
2023-05-01T21:39:36.326Z,5.90
2023-05-01T21:44:39.381Z,6.10
2023-05-01T21:49:42.425Z,6.10
2023-05-01T21:54:45.488Z,6.00
2023-05-01T21:59:48.557Z,5.90
2023-05-01T22:04:54.772Z,5.90
2023-05-01T22:09:57.945Z,6.20
2023-05-01T22:15:01.396Z,5.20
2023-05-01T22:20:07.219Z,5.60
2023-05-01T22:25:11.643Z,5.50
2023-05-01T22:30:14.607Z,6.30
2023-05-01T22:35:17.654Z,6.90
2023-05-01T22:40:20.649Z,5.90
2023-05-01T22:45:26.412Z,6.10
2023-05-01T22:50:29.404Z,6.20
2023-05-01T22:55:33.101Z,6.30
2023-05-01T23:05:39.559Z,5.70
2023-05-01T23:10:42.788Z,6.50
2023-05-01T23:15:47.623Z,6.00
2023-05-01T23:20:52.663Z,5.50
2023-05-01T23:25:55.824Z,5.80
2023-05-01T23:31:02.662Z,5.80
2023-05-01T23:36:12.852Z,5.90
2023-05-01T23:41:16.308Z,5.80
2023-05-01T23:46:19.454Z,6.00
2023-05-01T23:51:23.031Z,6.20
2023-05-01T23:56:26.147Z,5.50
